Grand Strand Airport
KCRE : now visible

Airfield :











YOU CAN JOIN US ON...

 
LOGIN :

Register | Disclaimer

   EN    FR    IT 

 









Legend :    VFR   Marginal VFR   IFR   Intensive IFR   Very Intensive IFR
Visi :
Ceiling :
>= 8 km
>= 3000ft
5 to 8 km
1000 to 3000 ft
1500m to 5 km
500 to 1000 ft
800 to 1500m
200 to 500 ft
< 800m
< 200 ft
Symbols :   Thunderstorms  Fog  Heavy snow  Heavy precipitations  Wind > 20 kt






- Airport Elevation : 32 ft


KCRE - Grand Strand

CURRENT METAR :
  • 082121Z VRB06KT 3SM -RA BR SCT005 OVC012 09/08 A3027 RMK AO1 P0002 T00940083

EXPIRED METARs :
  • 082053Z 34006KT 2SM -RA BR FEW005 OVC013 09/08 A3028 RMK AO1 SLP255 P0020 60046 T00890083 56005
  • 081953Z 35006KT 1 1/4SM RA BR SCT004 OVC013 09/08 A3029 RMK AO1 SLP257 P0019 T00890083
  • 081853Z 36006KT 1 1/2SM RA BR SCT004 BKN013 OVC021 09/08 A3030 RMK AO1 SLP260 P0007 T00890078

TAF KCRE
Valid from the 08 at 19:00 until the 09 at 18:00 UTC


081908Z 0819/0918 35009KT 6SM -RA BR BKN012 OVC020
TEMPO 0819/0822 1SM RA BR OVC006
FM082200 36008KT P6SM VCSH BKN012 OVC050
FM090000 01006KT P6SM VCSH BKN008 OVC015
FM090400 02004KT 3SM BR VCSH OVC005
FM090900 00000KT 1SM BR OVC004



MET'MAP, your aeronautical weather chart ! - Copyright ORBIFLY December 2007 - Disclaimer

ORBIFLY MET'MAP TEAM :

Programming & Development : Alexandra Zaïnal
Concept & original design : Baudouin d'Aumeries
Assistance for programming : Marc-Olivier Méhu
Technical & hardware support : Manuel Goepfert

Contact : metmap@orbifly.com




SOURCES & CREDITS :

   NOAA       Earth
Advisory